Time;durP1;ratioP1;P1;durP2;ratioP2;P2;SDS_P1;SDS_P2;PMS_P1;PMS_P2;Temp;Humidity;BMP_temperature;BMP_pressure;BME280_temperature;BME280_humidity;BME280_pressure;Samples;Min_cycle;Max_cycle;Signal;HPM_P1;HPM_P2
2022/03/25 00:02:16;;;;;;;20.32;9.00;;;;;;;3.89;38.65;101604.34;1708223;82;25916;-58
2022/03/25 00:04:43;;;;;;;22.85;9.33;;;;;;;3.87;38.97;101603.55;1708191;84;25846;-58
2022/03/25 00:07:10;;;;;;;21.12;8.33;;;;;;;3.83;39.09;101597.95;1708349;83;28409;-57
2022/03/25 00:09:37;;;;;;;19.90;7.97;;;;;;;3.76;39.38;101587.61;1708199;84;25769;-58
2022/03/25 00:12:06;;;;;;;24.07;9.20;;;;;;;3.70;39.56;101593.68;1708352;83;25773;-57
2022/03/25 00:14:34;;;;;;;19.35;8.25;;;;;;;3.64;39.44;101589.98;1708318;83;25749;-57
2022/03/25 00:17:01;;;;;;;16.40;9.45;;;;;;;3.56;39.81;101587.66;1708432;82;25809;-58
2022/03/25 00:19:28;;;;;;;17.82;8.75;;;;;;;3.52;40.07;101586.94;1708301;84;27491;-59
2022/03/25 00:21:55;;;;;;;24.75;9.83;;;;;;;3.47;39.94;101581.44;1708302;82;25870;-59
2022/03/25 00:24:24;;;;;;;19.77;9.55;;;;;;;3.42;39.99;101586.52;1712047;81;25741;-58
2022/03/25 00:26:52;;;;;;;16.25;9.48;;;;;;;3.36;40.58;101581.45;1740492;82;25777;-58
2022/03/25 00:29:19;;;;;;;22.87;9.65;;;;;;;3.31;40.84;101583.95;1740674;82;25750;-58
2022/03/25 00:31:46;;;;;;;22.30;10.08;;;;;;;3.28;40.84;101569.85;1740698;82;27502;-57
2022/03/25 00:34:14;;;;;;;22.05;9.00;;;;;;;3.28;40.44;101572.51;1740872;82;25694;-57
2022/03/25 00:36:42;;;;;;;29.00;10.15;;;;;;;3.30;41.14;101569.77;1740348;81;25762;-57
2022/03/25 00:39:09;;;;;;;20.02;10.03;;;;;;;3.28;41.38;101562.32;1740449;81;25808;-57
2022/03/25 00:41:37;;;;;;;22.37;10.10;;;;;;;3.28;41.00;101558.33;1740705;81;25837;-57
2022/03/25 00:44:07;;;;;;;22.48;10.43;;;;;;;3.27;41.14;101561.47;1739441;80;28241;-57
2022/03/25 00:46:35;;;;;;;24.10;9.93;;;;;;;3.24;41.41;101560.27;1738612;82;25690;-57
2022/03/25 00:49:06;;;;;;;20.97;9.85;;;;;;;3.21;41.22;101557.77;1738665;81;25695;-57
2022/03/25 00:51:34;;;;;;;26.37;11.12;;;;;;;3.20;41.21;101551.17;1738598;81;25782;-58
2022/03/25 00:54:04;;;;;;;26.02;10.40;;;;;;;3.19;41.76;101553.42;1738660;82;25959;-58
2022/03/25 00:56:31;;;;;;;21.05;11.15;;;;;;;3.16;41.66;101549.12;1738552;81;28208;-58
2022/03/25 00:58:59;;;;;;;25.65;11.30;;;;;;;3.12;42.01;101553.72;1716062;81;25809;-59
2022/03/25 01:01:26;;;;;;;21.80;9.78;;;;;;;3.09;42.03;101551.19;1706164;83;25832;-58
2022/03/25 01:03:54;;;;;;;29.45;11.65;;;;;;;3.06;41.91;101540.70;1706076;84;25749;-59
2022/03/25 01:06:21;;;;;;;22.62;9.80;;;;;;;3.06;41.75;101542.48;1706036;84;25523;-58
2022/03/25 01:08:48;;;;;;;23.50;11.95;;;;;;;3.04;42.07;101543.89;1705954;83;28439;-57
2022/03/25 01:11:15;;;;;;;21.25;11.60;;;;;;;3.07;41.78;101533.58;1706270;83;25704;-58
2022/03/25 01:13:41;;;;;;;23.20;9.78;;;;;;;3.07;41.90;101533.13;1706166;83;25815;-58
2022/03/25 01:16:09;;;;;;;23.95;10.70;;;;;;;3.08;41.88;101531.33;1706373;83;25782;-58
2022/03/25 01:18:38;;;;;;;22.87;10.60;;;;;;;3.09;41.96;101529.91;1705833;84;25741;-58
2022/03/25 01:21:06;;;;;;;18.95;10.08;;;;;;;3.09;41.77;101530.39;1706263;83;28463;-57
2022/03/25 01:23:33;;;;;;;31.15;10.55;;;;;;;3.08;41.51;101525.56;1705959;84;25748;-58
2022/03/25 01:26:00;;;;;;;23.50;10.60;;;;;;;3.08;41.92;101528.66;1731591;82;25920;-57
2022/03/25 01:28:32;;;;;;;20.72;9.83;;;;;;;3.06;41.89;101531.40;1738311;82;27939;-58
2022/03/25 01:30:56;;;;;;;29.15;10.98;;;;;;;3.04;42.01;101533.26;1738353;82;25774;-57
2022/03/25 01:33:23;;;;;;;29.65;10.10;;;;;;;3.03;41.89;101528.02;1738872;82;27528;-58
2022/03/25 01:35:51;;;;;;;24.95;11.35;;;;;;;3.02;41.92;101531.13;1738484;82;25696;-58
2022/03/25 01:38:18;;;;;;;27.58;12.73;;;;;;;3.01;42.06;101528.55;1738589;82;25813;-58
2022/03/25 01:40:45;;;;;;;26.90;9.78;;;;;;;3.00;41.93;101527.70;1738410;81;25795;-58
2022/03/25 01:43:12;;;;;;;24.80;10.53;;;;;;;2.99;42.19;101531.28;1738568;80;25470;-58
2022/03/25 01:45:39;;;;;;;22.87;10.78;;;;;;;2.95;42.08;101527.91;1738193;82;27435;-58
2022/03/25 01:48:12;;;;;;;29.50;11.80;;;;;;;2.95;42.13;101519.05;1738793;82;25792;-58
2022/03/25 01:50:42;;;;;;;29.32;10.82;;;;;;;2.97;42.18;101522.03;1738462;82;32470;-58
2022/03/25 01:53:26;;;;;;;25.60;10.88;;;;;;;2.95;42.11;101523.03;1738986;82;25880;-59
2022/03/25 01:55:59;;;;;;;28.13;10.07;;;;;;;2.97;41.87;101519.38;1738910;82;25618;-58
2022/03/25 01:58:29;;;;;;;;;;;;;;;2.98;41.91;101512.28;1733192;82;27454;-57
2022/03/25 02:00:58;;;;;;;26.20;11.48;;;;;;;3.01;42.20;101503.30;1723278;83;25767;-58
2022/03/25 02:03:26;;;;;;;21.52;10.68;;;;;;;3.01;42.05;101514.78;1723402;82;25778;-58
2022/03/25 02:05:53;;;;;;;20.17;10.38;;;;;;;3.04;41.60;101512.47;1723357;83;25722;-58
2022/03/25 02:08:21;;;;;;;23.90;10.63;;;;;;;3.04;42.12;101510.66;1723630;82;25699;-57
2022/03/25 02:10:48;;;;;;;24.02;10.43;;;;;;;3.01;42.46;101513.45;1723580;82;27450;-58
2022/03/25 02:13:17;;;;;;;25.80;10.32;;;;;;;2.98;42.39;101507.81;1723235;82;25479;-59
2022/03/25 02:15:49;;;;;;;28.05;10.65;;;;;;;2.98;42.50;101506.48;1723384;82;25423;-58
2022/03/25 02:18:20;;;;;;;26.68;10.63;;;;;;;3.00;42.69;101500.23;1723417;81;26738;-57
2022/03/25 02:20:49;;;;;;;24.20;10.03;;;;;;;2.96;42.74;101504.83;1723093;83;25779;-58
2022/03/25 02:23:18;;;;;;;24.18;10.28;;;;;;;2.94;42.82;101506.69;1723646;83;27537;-59
2022/03/25 02:25:50;;;;;;;18.70;10.35;;;;;;;2.92;42.89;101506.77;1733719;82;25728;-59
2022/03/25 02:28:18;;;;;;;20.88;10.08;;;;;;;2.89;43.21;101502.06;1738891;82;25767;-58
2022/03/25 02:30:47;;;;;;;24.15;10.82;;;;;;;2.88;43.17;101500.33;1738664;81;25719;-58
2022/03/25 02:33:14;;;;;;;21.45;10.25;;;;;;;2.85;43.17;101507.09;1736296;81;25815;-58
2022/03/25 02:35:50;;;;;;;28.92;11.95;;;;;;;2.83;43.21;101504.52;1738523;82;27448;-57
2022/03/25 02:38:21;;;;;;;22.42;10.55;;;;;;;2.79;43.25;101508.23;1738503;81;25667;-58
2022/03/25 02:40:49;;;;;;;18.62;10.43;;;;;;;2.78;43.53;101498.08;1736315;82;25847;-58
2022/03/25 02:43:17;;;;;;;19.82;11.00;;;;;;;2.77;43.61;101508.30;1709269;83;25808;-59
2022/03/25 02:45:46;;;;;;;30.30;10.63;;;;;;;2.72;43.60;101502.34;1758331;81;25766;-58
2022/03/25 02:48:14;;;;;;;22.22;9.95;;;;;;;2.70;43.23;101504.20;1761587;81;27412;-58
2022/03/25 02:50:42;;;;;;;23.35;11.15;;;;;;;2.71;43.50;101507.25;1758934;80;25456;-58
2022/03/25 02:53:09;;;;;;;29.32;11.55;;;;;;;2.73;43.47;101503.19;1759269;80;25781;-58
2022/03/25 02:55:36;;;;;;;20.68;11.10;;;;;;;2.72;43.56;101506.33;1758738;81;26568;-58
2022/03/25 02:58:03;;;;;;;25.20;10.68;;;;;;;2.70;43.43;101508.19;1769140;79;25693;-58
2022/03/25 03:00:32;;;;;;;25.37;12.68;;;;;;;2.65;43.54;101499.53;1717004;83;27494;-58
2022/03/25 03:03:02;;;;;;;22.27;10.78;;;;;;;2.66;43.63;101495.95;1753599;80;25791;-59
2022/03/25 03:05:31;;;;;;;22.48;11.22;;;;;;;2.61;44.12;101501.46;1717438;83;25508;-59
2022/03/25 03:07:59;;;;;;;27.05;11.57;;;;;;;2.56;44.40;101495.50;1753299;81;25906;-58
2022/03/25 03:10:27;;;;;;;21.17;10.48;;;;;;;2.52;44.44;101492.56;1754073;81;25860;-58
2022/03/25 03:12:55;;;;;;;20.60;10.53;;;;;;;2.52;44.75;101489.05;1717256;83;28174;-57
2022/03/25 03:15:24;;;;;;;31.12;12.00;;;;;;;2.49;44.74;101489.58;1753851;81;25844;-58
2022/03/25 03:17:52;;;;;;;20.97;10.72;;;;;;;2.48;44.82;101495.81;1717236;83;25729;-57
2022/03/25 03:20:20;;;;;;;28.83;10.60;;;;;;;2.49;44.69;101497.55;1753759;80;25976;-57
2022/03/25 03:22:48;;;;;;;26.02;11.22;;;;;;;2.47;45.54;101496.75;1717275;83;25783;-58
2022/03/25 03:25:15;;;;;;;18.55;11.68;;;;;;;2.47;44.78;101498.07;1753689;80;29600;-59
2022/03/25 03:27:43;;;;;;;25.37;11.93;;;;;;;2.46;45.11;101500.36;1717007;83;25456;-59
2022/03/25 03:30:11;;;;;;;26.82;11.03;;;;;;;2.48;45.43;101501.13;1753696;80;25721;-58
2022/03/25 03:32:39;;;;;;;33.02;11.57;;;;;;;2.48;45.87;101496.30;1717107;82;25770;-58
2022/03/25 03:35:08;;;;;;;28.00;12.07;;;;;;;2.42;46.44;101493.91;1753973;81;25738;-59
2022/03/25 03:37:41;;;;;;;26.68;11.28;;;;;;;2.37;46.59;101494.11;1753610;80;27464;-59
2022/03/25 03:40:10;;;;;;;;;;;;;;;2.37;46.64;101491.45;1718824;83;25929;-60
2022/03/25 03:42:38;;;;;;;24.75;11.30;;;;;;;2.39;47.08;101486.92;1753701;80;25778;-58
2022/03/25 03:45:08;;;;;;;20.48;11.08;;;;;;;2.42;45.97;101486.80;1745700;81;25796;-57
2022/03/25 03:47:36;;;;;;;36.25;12.75;;;;;;;2.49;45.75;101482.09;1737813;82;25761;-58
2022/03/25 03:50:06;;;;;;;26.82;10.63;;;;;;;2.53;46.49;101486.33;1737771;82;28158;-59
2022/03/25 03:52:33;;;;;;;27.55;11.97;;;;;;;2.62;46.14;101483.75;1737848;82;25777;-58
2022/03/25 03:55:00;;;;;;;30.17;13.15;;;;;;;2.70;46.23;101482.06;1737875;82;25763;-58
2022/03/25 03:57:27;;;;;;;29.63;11.97;;;;;;;2.70;46.26;101484.72;1728917;82;25995;-58
2022/03/25 03:59:54;;;;;;;26.17;12.00;;;;;;;2.72;46.15;101482.42;1708369;83;25744;-59
2022/03/25 04:02:22;;;;;;;21.23;10.85;;;;;;;2.73;46.15;101486.80;1708275;84;27507;-58
2022/03/25 04:04:49;;;;;;;26.15;11.30;;;;;;;2.78;46.44;101488.78;1708402;83;25795;-58
2022/03/25 04:07:16;;;;;;;32.08;12.70;;;;;;;2.80;46.42;101484.71;1708289;83;25659;-58
2022/03/25 04:09:42;;;;;;;30.00;12.50;;;;;;;2.82;46.30;101481.05;1708388;84;25906;-58
2022/03/25 04:12:11;;;;;;;28.50;11.75;;;;;;;2.88;45.95;101473.27;1708695;83;25884;-57
2022/03/25 04:14:38;;;;;;;25.72;12.30;;;;;;;2.97;45.88;101485.30;1708433;82;27476;-58
2022/03/25 04:17:05;;;;;;;31.40;13.00;;;;;;;3.02;46.13;101481.95;1708117;84;25788;-59
2022/03/25 04:19:32;;;;;;;27.40;12.25;;;;;;;3.06;46.11;101486.20;1708281;82;25782;-58
2022/03/25 04:21:59;;;;;;;30.30;12.80;;;;;;;3.10;46.13;101487.77;1708487;83;25927;-58
2022/03/25 04:24:26;;;;;;;29.37;11.97;;;;;;;3.10;46.25;101486.93;1711940;82;25725;-59
2022/03/25 04:26:53;;;;;;;26.65;12.90;;;;;;;3.06;46.41;101488.87;1737641;82;27464;-58
2022/03/25 04:29:22;;;;;;;40.75;12.07;;;;;;;3.05;46.54;101485.81;1737499;82;25695;-59
2022/03/25 04:31:49;;;;;;;50.98;14.75;;;;;;;3.01;46.77;101495.32;1737789;82;25525;-59
2022/03/25 04:34:17;;;;;;;42.35;13.83;;;;;;;2.95;47.30;101499.11;1738079;82;25960;-59
2022/03/25 04:36:43;;;;;;;33.05;13.60;;;;;;;2.84;47.49;101494.73;1737879;82;25533;-58
2022/03/25 04:39:10;;;;;;;27.50;14.43;;;;;;;2.80;47.55;101497.55;1737799;81;27463;-57
2022/03/25 04:41:37;;;;;;;36.15;13.58;;;;;;;2.81;47.73;101499.28;1736722;82;27282;-58
2022/03/25 04:44:05;;;;;;;32.35;13.90;;;;;;;2.81;47.71;101501.06;1741887;82;25464;-58
2022/03/25 04:46:34;;;;;;;35.13;14.98;;;;;;;2.89;47.24;101504.72;1742931;80;25790;-59
2022/03/25 04:49:01;;;;;;;35.68;15.70;;;;;;;2.95;47.66;101511.95;1737812;82;25736;-59
2022/03/25 04:51:27;;;;;;;30.00;14.33;;;;;;;3.02;48.00;101523.16;1732218;82;28494;-59
2022/03/25 04:53:54;;;;;;;27.62;14.20;;;;;;;3.14;48.32;101523.06;1708181;83;25685;-56
2022/03/25 04:56:21;;;;;;;27.93;14.25;;;;;;;3.22;48.98;101529.37;1708395;84;25825;-57
2022/03/25 04:58:48;;;;;;;26.62;14.68;;;;;;;3.29;51.47;101525.48;1715395;82;25797;-57
2022/03/25 05:01:15;;;;;;;23.80;12.53;;;;;;;3.38;52.35;101525.55;1678093;84;25666;-59
2022/03/25 05:03:42;;;;;;;24.57;13.55;;;;;;;3.47;54.88;101525.57;1682951;84;27457;-58
2022/03/25 05:06:09;;;;;;;26.70;14.60;;;;;;;3.50;54.33;101524.95;1678269;84;25754;-59
2022/03/25 05:08:35;;;;;;;25.65;15.28;;;;;;;3.56;54.82;101526.47;1678211;85;25674;-58
2022/03/25 05:11:02;;;;;;;30.37;16.32;;;;;;;3.60;55.95;101526.25;1678677;85;25845;-58
2022/03/25 05:13:28;;;;;;;31.82;14.98;;;;;;;3.62;56.77;101530.20;1678586;85;26111;-57
2022/03/25 05:15:55;;;;;;;30.25;14.75;;;;;;;3.63;55.92;101529.23;1678631;85;27613;-58
2022/03/25 05:18:24;;;;;;;25.10;13.65;;;;;;;3.66;56.47;101529.09;1660589;85;25903;-59
2022/03/25 05:20:51;;;;;;;28.32;15.98;;;;;;;3.65;56.80;101524.70;1678557;85;25759;-59
2022/03/25 05:23:18;;;;;;;27.65;15.00;;;;;;;3.67;56.64;101526.83;1678224;85;25810;-59
2022/03/25 05:25:45;;;;;;;32.55;15.60;;;;;;;3.68;57.67;101529.02;1678673;83;25809;-56
2022/03/25 05:28:12;;;;;;;26.60;15.32;;;;;;;3.67;57.10;101527.31;1671252;85;27507;-58
2022/03/25 05:30:39;;;;;;;24.57;15.43;;;;;;;3.73;57.02;101528.34;1706729;84;25724;-57
2022/03/25 05:33:06;;;;;;;25.02;13.65;;;;;;;3.76;57.36;101528.20;1706518;84;25705;-58
2022/03/25 05:35:34;;;;;;;33.40;15.55;;;;;;;3.80;57.58;101532.43;1706805;83;25844;-58
2022/03/25 05:38:01;;;;;;;26.45;14.47;;;;;;;3.90;58.02;101531.50;1706839;83;25841;-58
2022/03/25 05:40:28;;;;;;;27.10;15.40;;;;;;;3.96;58.51;101533.02;1706727;84;27398;-58
2022/03/25 05:42:55;;;;;;;23.98;14.07;;;;;;;3.89;61.60;101539.13;1706572;82;25523;-58
2022/03/25 05:45:23;;;;;;;25.35;14.68;;;;;;;3.80;62.31;101543.08;1711747;82;25515;-59
2022/03/25 05:47:51;;;;;;;32.58;17.17;;;;;;;3.73;62.56;101533.19;1687053;85;25876;-59
2022/03/25 05:50:19;;;;;;;32.45;15.83;;;;;;;3.82;60.87;101527.91;1722113;81;25741;-59
2022/03/25 05:52:46;;;;;;;31.25;17.10;;;;;;;3.97;61.88;101529.41;1687014;85;27015;-58
2022/03/25 05:55:16;;;;;;;29.40;15.35;;;;;;;4.15;61.37;101532.99;1722243;83;25622;-57
2022/03/25 05:57:43;;;;;;;31.65;16.10;;;;;;;4.29;60.82;101530.49;1702867;82;25810;-59
2022/03/25 06:00:13;;;;;;;22.48;14.93;;;;;;;4.45;60.38;101523.93;1744136;81;25863;-57
2022/03/25 06:02:42;;;;;;;26.52;14.70;;;;;;;4.58;60.62;101534.82;1708330;82;25764;-58
2022/03/25 06:05:11;;;;;;;25.20;14.18;;;;;;;4.67;63.71;101547.68;1692983;84;27449;-58
2022/03/25 06:07:41;;;;;;;26.30;15.20;;;;;;;4.63;63.77;101547.91;1692833;84;25797;-58
2022/03/25 06:10:10;;;;;;;30.80;15.43;;;;;;;4.66;62.16;101544.62;1693184;84;25762;-58
2022/03/25 06:12:39;;;;;;;27.13;15.93;;;;;;;4.78;61.80;101545.78;1697827;84;25754;-58
2022/03/25 06:15:42;;;;;;;21.77;13.90;;;;;;;4.75;62.62;101547.27;1698171;83;26109;-58
2022/03/25 06:18:09;;;;;;;27.60;15.63;;;;;;;4.75;61.89;101553.08;1711835;83;27686;-58
2022/03/25 06:20:36;;;;;;;33.83;16.30;;;;;;;4.59;63.38;101551.66;1714206;83;25732;-58
2022/03/25 06:23:03;;;;;;;33.92;15.10;;;;;;;4.49;62.68;101554.79;1720010;83;25478;-58
2022/03/25 06:25:30;;;;;;;28.07;16.02;;;;;;;4.42;62.66;101550.72;1757143;81;26560;-58
2022/03/25 06:28:00;;;;;;;34.35;16.27;;;;;;;4.44;62.80;101550.66;1759148;81;25657;-57
2022/03/25 06:30:33;;;;;;;26.52;14.28;;;;;;;4.47;63.07;101552.70;1759354;81;28268;-58
2022/03/25 06:33:00;;;;;;;31.02;15.20;;;;;;;4.53;62.61;101557.70;1759047;81;25666;-58
2022/03/25 06:35:27;;;;;;;27.20;14.70;;;;;;;4.57;62.50;101565.08;1758665;81;25646;-58
2022/03/25 06:37:55;;;;;;;26.55;15.03;;;;;;;4.59;62.92;101580.52;1753553;81;25922;-58
2022/03/25 06:40:24;;;;;;;24.90;13.95;;;;;;;4.59;62.86;101585.85;1740427;81;25694;-58
2022/03/25 06:42:54;;;;;;;28.90;14.87;;;;;;;4.59;63.97;101596.52;1697084;83;27484;-58
2022/03/25 06:45:21;;;;;;;22.17;14.15;;;;;;;4.55;64.48;101601.59;1740717;81;25760;-57
2022/03/25 06:47:48;;;;;;;22.70;13.18;;;;;;;4.48;66.39;101610.83;1697391;83;25818;-58
2022/03/25 06:50:17;;;;;;;29.30;15.70;;;;;;;4.28;65.57;101615.33;1741913;80;26539;-58
2022/03/25 06:52:46;;;;;;;32.13;14.00;;;;;;;4.10;65.78;101616.22;1739394;81;25793;-59
2022/03/25 06:55:15;;;;;;;23.73;13.35;;;;;;;4.04;66.73;101620.03;1700481;83;27167;-58
2022/03/25 06:57:43;;;;;;;27.30;13.88;;;;;;;3.99;66.12;101624.25;1746755;79;25503;-58
2022/03/25 07:00:13;;;;;;;22.73;13.53;;;;;;;3.94;66.75;101623.61;1702434;83;25807;-59
2022/03/25 07:02:43;;;;;;;27.58;13.83;;;;;;;3.87;66.74;101637.67;1736881;81;26596;-58
2022/03/25 07:05:13;;;;;;;34.53;15.78;;;;;;;3.82;67.59;101647.68;1702676;83;25836;-57
2022/03/25 07:07:42;;;;;;;24.50;14.25;;;;;;;3.78;67.62;101641.23;1740250;81;27474;-58
2022/03/25 07:10:11;;;;;;;26.37;12.93;;;;;;;3.73;67.30;101654.27;1703104;83;25807;-59
2022/03/25 07:12:43;;;;;;;26.17;15.48;;;;;;;3.66;67.43;101651.50;1737138;81;25468;-59
2022/03/25 07:15:12;;;;;;;21.35;13.25;;;;;;;3.66;66.99;101651.50;1705887;83;25903;-58
2022/03/25 07:17:41;;;;;;;27.15;14.55;;;;;;;3.69;66.93;101656.70;1740088;81;25783;-58
2022/03/25 07:20:14;;;;;;;29.95;16.32;;;;;;;3.67;67.40;101658.55;1703052;83;27480;-59
2022/03/25 07:22:47;;;;;;;24.27;14.23;;;;;;;3.67;67.27;101655.89;1738407;81;25818;-58
2022/03/25 07:25:16;;;;;;;24.23;14.95;;;;;;;3.65;67.77;101656.91;1709585;83;25527;-59
2022/03/25 07:27:45;;;;;;;20.68;14.15;;;;;;;3.65;68.71;101662.23;1753814;80;26579;-58
2022/03/25 07:30:14;;;;;;;24.45;14.47;;;;;;;3.70;68.34;101661.09;1717290;83;25819;-58
2022/03/25 07:32:42;;;;;;;23.40;13.93;;;;;;;3.76;68.59;101663.46;1754094;81;27571;-58
2022/03/25 07:35:10;;;;;;;23.38;14.10;;;;;;;3.77;69.35;101673.63;1754054;81;25523;-59
2022/03/25 07:37:42;;;;;;;23.83;14.38;;;;;;;3.81;70.14;101671.72;1717371;83;25796;-59
2022/03/25 07:40:11;;;;;;;27.32;13.65;;;;;;;3.90;69.81;101674.80;1753944;81;25821;-59
2022/03/25 07:42:40;;;;;;;24.00;15.18;;;;;;;3.98;69.62;101669.14;1717239;83;25809;-60
2022/03/25 07:45:13;;;;;;;32.30;15.83;;;;;;;4.11;69.15;101671.20;1753602;81;27454;-58
2022/03/25 07:47:47;;;;;;;28.60;14.97;;;;;;;4.26;69.12;101672.28;1707610;83;25765;-59
2022/03/25 07:50:17;;;;;;;26.95;14.70;;;;;;;4.38;68.66;101674.37;1748250;82;25519;-58
2022/03/25 07:52:46;;;;;;;27.02;15.23;;;;;;;4.51;68.56;101672.83;1719684;82;25917;-59
2022/03/25 07:55:16;;;;;;;30.30;15.08;;;;;;;4.72;68.21;101675.39;1748807;81;25461;-58
2022/03/25 07:57:44;;;;;;;27.40;13.43;;;;;;;4.92;67.89;101682.38;1740785;82;28174;-58
2022/03/25 08:00:13;;;;;;;25.97;14.85;;;;;;;5.03;67.78;101684.98;1736169;81;25790;-59
2022/03/25 08:02:44;;;;;;;27.50;14.18;;;;;;;5.14;66.82;101691.98;1731809;82;25654;-59
2022/03/25 08:05:13;;;;;;;22.42;13.72;;;;;;;5.34;66.87;101692.28;1733211;80;25866;-59
2022/03/25 08:07:52;;;;;;;23.70;14.23;;;;;;;5.44;66.48;101677.97;1740461;81;25792;-58
2022/03/25 08:10:25;;;;;;;27.40;14.80;;;;;;;5.61;66.17;101679.76;1714771;82;27478;-58
2022/03/25 08:12:56;;;;;;;27.22;13.83;;;;;;;5.79;65.99;101684.12;1746063;81;25802;-58
2022/03/25 08:15:25;;;;;;;33.02;15.08;;;;;;;5.88;65.64;101682.73;1691826;84;25538;-57
2022/03/25 08:17:57;;;;;;;26.45;14.78;;;;;;;5.88;65.31;101685.90;1731456;82;25800;-58
2022/03/25 08:20:37;;;;;;;26.30;14.90;;;;;;;5.89;65.10;101689.81;1733672;82;25713;-59
2022/03/25 08:28:32;;;;;;;29.18;16.32;;;;;;;5.91;64.52;101694.60;1735307;82;25727;-59
2022/03/25 08:30:59;;;;;;;23.00;13.32;;;;;;;6.11;64.41;101699.37;1718940;83;25908;-58
2022/03/25 08:33:27;;;;;;;24.02;13.88;;;;;;;6.34;63.90;101688.74;1718966;83;25691;-57
2022/03/25 08:35:54;;;;;;;21.97;11.43;;;;;;;6.50;63.77;101694.55;1718686;83;27484;-58
2022/03/25 08:38:22;;;;;;;20.62;11.50;;;;;;;6.86;63.06;101690.70;1748026;82;25850;-58
2022/03/25 08:40:48;;;;;;;19.82;12.78;;;;;;;7.10;62.14;101700.45;1736950;80;25727;-58
2022/03/25 08:43:16;;;;;;;27.02;12.73;;;;;;;7.14;61.19;101696.62;1735107;82;25847;-58
2022/03/25 08:45:43;;;;;;;18.20;12.33;;;;;;;7.10;60.78;101700.45;1735179;82;25734;-58
2022/03/25 08:48:10;;;;;;;21.52;11.20;;;;;;;7.13;60.91;101698.91;1723966;82;27443;-58
2022/03/25 08:50:37;;;;;;;22.37;11.43;;;;;;;7.40;60.00;101692.86;1717375;82;26010;-57
2022/03/25 08:53:06;;;;;;;18.05;9.15;;;;;;;7.57;59.20;101697.69;1733638;82;25652;-58
2022/03/25 08:55:34;;;;;;;15.23;9.98;;;;;;;7.70;57.26;101693.28;1724832;82;25805;-58
2022/03/25 08:58:01;;;;;;;17.05;9.08;;;;;;;7.63;55.65;101698.64;1716739;82;25802;-58
2022/03/25 09:00:28;;;;;;;21.62;9.83;;;;;;;7.49;54.93;101702.16;1721535;82;27557;-57
2022/03/25 09:02:54;;;;;;;15.85;10.40;;;;;;;7.35;55.42;101707.86;1722795;82;25984;-58
2022/03/25 09:05:21;;;;;;;17.37;10.00;;;;;;;7.23;55.37;101707.73;1720726;82;25829;-58
2022/03/25 09:07:48;;;;;;;17.92;10.82;;;;;;;7.16;55.88;101712.61;1723449;82;25801;-58
2022/03/25 09:10:16;;;;;;;22.17;11.05;;;;;;;7.04;55.27;101718.19;1721260;82;25848;-59
2022/03/25 09:12:45;;;;;;;12.43;8.93;;;;;;;7.03;54.91;101714.66;1708412;84;27477;-58
2022/03/25 09:15:14;;;;;;;13.58;8.80;;;;;;;7.17;54.77;101716.52;1683876;85;25727;-58
2022/03/25 09:17:45;;;;;;;11.88;7.60;;;;;;;7.40;54.49;101720.97;1708273;84;25776;-58
2022/03/25 09:20:13;;;;;;;11.55;6.40;;;;;;;7.82;53.28;101717.98;1708615;83;25769;-58
2022/03/25 09:22:41;;;;;;;12.35;6.97;;;;;;;7.95;51.22;101716.74;1712231;82;25743;-58
2022/03/25 09:25:11;;;;;;;11.28;5.95;;;;;;;7.94;51.52;101720.84;1725175;82;28315;-58
2022/03/25 09:27:39;;;;;;;9.18;6.55;;;;;;;7.87;51.73;101722.18;1717948;82;25737;-59
2022/03/25 09:30:09;;;;;;;10.30;6.08;;;;;;;7.82;51.41;101724.69;1683886;85;25725;-58
2022/03/25 09:32:36;;;;;;;11.78;6.30;;;;;;;7.80;51.92;101732.41;1708047;84;26611;-58
2022/03/25 09:35:08;;;;;;;7.33;5.33;;;;;;;7.86;51.66;101733.39;1684038;85;25827;-57
2022/03/25 09:37:47;;;;;;;10.53;5.80;;;;;;;7.85;52.75;101743.72;1739149;81;27476;-58
2022/03/25 09:40:18;;;;;;;7.03;5.12;;;;;;;7.93;52.10;101741.92;1737385;82;25537;-58
2022/03/25 09:42:47;;;;;;;12.40;5.83;;;;;;;7.98;51.78;101743.33;1732964;82;25668;-58
2022/03/25 09:45:16;;;;;;;7.55;5.40;;;;;;;8.04;53.05;101755.48;1725170;82;25793;-58
2022/03/25 09:47:44;;;;;;;8.70;4.83;;;;;;;8.25;53.06;101747.06;1749316;81;25815;-58
2022/03/25 09:50:16;;;;;;;6.92;4.33;;;;;;;8.44;53.92;101753.45;1717066;83;28159;-58
2022/03/25 09:52:44;;;;;;;6.42;4.55;;;;;;;8.45;53.89;101750.69;1753543;81;26077;-57
2022/03/25 09:55:13;;;;;;;6.60;4.95;;;;;;;8.23;53.51;101754.33;1716750;83;25748;-57
2022/03/25 09:57:41;;;;;;;6.75;5.20;;;;;;;8.03;53.78;101762.29;1741257;79;25795;-57
2022/03/25 10:00:14;;;;;;;12.18;6.60;;;;;;;7.90;54.06;101769.73;1754362;81;25758;-58
2022/03/25 10:02:41;;;;;;;7.75;5.45;;;;;;;7.72;54.60;101784.25;1708642;82;27455;-57
2022/03/25 10:05:19;;;;;;;8.65;5.95;;;;;;;7.50;55.49;101794.43;1708254;82;26138;-57
2022/03/25 10:07:52;;;;;;;9.03;5.08;;;;;;;7.27;56.02;101808.32;1708439;83;25720;-57
2022/03/25 10:10:22;;;;;;;9.98;6.05;;;;;;;7.11;56.28;101811.01;1708577;82;25789;-58
2022/03/25 10:13:00;;;;;;;15.65;7.40;;;;;;;6.97;56.82;101818.03;1692938;84;25786;-58
2022/03/25 10:15:39;;;;;;;10.63;7.05;;;;;;;6.80;57.85;101826.14;1708317;82;28360;-58
2022/03/25 10:18:08;;;;;;;11.10;7.08;;;;;;;6.51;58.48;101827.27;1692826;83;25817;-58
2022/03/25 10:20:43;;;;;;;13.70;7.83;;;;;;;6.41;59.24;101842.92;1708883;84;25794;-58
2022/03/25 10:23:19;;;;;;;10.43;6.65;;;;;;;6.24;59.91;101846.03;1708049;84;25795;-58
2022/03/25 10:25:51;;;;;;;10.85;6.72;;;;;;;6.10;60.12;101852.59;1696362;83;25849;-58
2022/03/25 10:28:32;;;;;;;11.97;5.95;;;;;;;5.99;60.70;101854.49;1721344;83;27468;-58
2022/03/25 10:31:02;;;;;;;11.35;6.58;;;;;;;5.94;61.40;101852.03;1720179;83;26010;-57
2022/03/25 10:33:34;;;;;;;7.85;6.05;;;;;;;5.87;61.64;101857.27;1753607;81;25770;-57
2022/03/25 10:36:19;;;;;;;7.37;5.12;;;;;;;5.87;62.31;101867.09;1717817;83;25823;-57
2022/03/25 10:39:05;;;;;;;8.98;4.85;;;;;;;5.91;62.54;101861.52;1753573;81;25772;-58
2022/03/25 10:41:45;;;;;;;6.87;4.75;;;;;;;5.98;61.61;101870.09;1716997;83;28498;-58
2022/03/25 10:44:13;;;;;;;9.88;7.08;;;;;;;6.11;61.48;101869.02;1753443;81;25811;-58
2022/03/25 10:46:46;;;;;;;10.88;5.60;;;;;;;6.05;61.16;101874.20;1704764;83;25755;-58
2022/03/25 10:49:17;;;;;;;10.32;6.87;;;;;;;6.04;61.50;101872.95;1753938;81;26441;-57
2022/03/25 10:52:01;;;;;;;10.32;6.92;;;;;;;6.00;61.87;101880.72;1717223;83;25771;-59
2022/03/25 10:54:28;;;;;;;13.85;7.42;;;;;;;5.96;62.38;101888.00;1724014;81;27529;-58
2022/03/25 10:57:00;;;;;;;9.58;6.95;;;;;;;5.86;62.09;101880.05;1691036;84;25887;-58
2022/03/25 10:59:32;;;;;;;17.30;8.63;;;;;;;5.86;62.18;101876.05;1685650;83;25741;-59
2022/03/25 11:02:04;;;;;;;10.57;7.67;;;;;;;5.87;62.62;101874.63;1714748;83;26416;-58
2022/03/25 11:04:32;;;;;;;12.55;8.78;;;;;;;5.89;63.17;101892.78;1702923;83;25731;-57
2022/03/25 11:07:01;;;;;;;14.13;8.05;;;;;;;5.93;62.57;101881.47;1714214;82;29650;-58
2022/03/25 11:09:29;;;;;;;20.57;9.43;;;;;;;6.00;62.36;101887.40;1704468;83;25824;-58
2022/03/25 11:11:59;;;;;;;13.38;8.95;;;;;;;6.07;62.68;101896.36;1701132;83;25824;-58
2022/03/25 11:14:26;;;;;;;14.40;8.68;;;;;;;6.11;62.42;101889.91;1700627;83;25795;-58
2022/03/25 11:16:59;;;;;;;16.40;9.35;;;;;;;6.10;62.10;101897.52;1697683;83;25705;-58
2022/03/25 11:19:28;;;;;;;16.50;10.20;;;;;;;6.08;61.98;101894.09;1697459;83;27565;-59
2022/03/25 11:21:59;;;;;;;17.82;10.13;;;;;;;6.03;61.72;101901.94;1701060;83;25496;-58
2022/03/25 11:24:38;;;;;;;17.65;10.20;;;;;;;5.95;61.80;101895.16;1703051;83;25808;-58
2022/03/25 11:27:16;;;;;;;15.15;9.05;;;;;;;5.94;62.14;101896.09;1698871;83;25812;-57
2022/03/25 11:29:46;;;;;;;16.87;10.00;;;;;;;5.94;62.33;101893.88;1698512;83;25840;-59
2022/03/25 11:32:15;;;;;;;13.85;9.53;;;;;;;5.95;62.23;101903.63;1699776;82;27466;-58
2022/03/25 11:34:59;;;;;;;15.68;9.58;;;;;;;6.01;62.05;101906.01;1698749;83;25830;-58
2022/03/25 11:37:29;;;;;;;14.83;9.90;;;;;;;6.17;62.19;101907.42;1699218;83;25784;-58